sensor_id;sensor_type;location;lat;lon;timestamp;temperature;humidity
9425;DHT22;17139;52.140;11.636;2023-04-04T00:00:25;0.10;50.30
9425;DHT22;17139;52.140;11.636;2023-04-04T00:02:52;0.10;49.80
9425;DHT22;17139;52.140;11.636;2023-04-04T00:05:19;0.00;49.90
9425;DHT22;17139;52.140;11.636;2023-04-04T00:07:47;0.00;50.20
9425;DHT22;17139;52.140;11.636;2023-04-04T00:10:14;-0.10;50.10
9425;DHT22;17139;52.140;11.636;2023-04-04T00:12:43;-0.10;50.20
9425;DHT22;17139;52.140;11.636;2023-04-04T00:15:11;-0.10;50.20
9425;DHT22;17139;52.140;11.636;2023-04-04T00:17:38;-0.10;50.10
9425;DHT22;17139;52.140;11.636;2023-04-04T00:20:06;0.00;50.20
9425;DHT22;17139;52.140;11.636;2023-04-04T00:22:34;0.00;50.20
9425;DHT22;17139;52.140;11.636;2023-04-04T00:25:01;0.10;50.20
9425;DHT22;17139;52.140;11.636;2023-04-04T00:27:29;0.10;50.00
9425;DHT22;17139;52.140;11.636;2023-04-04T00:29:58;0.20;50.00
9425;DHT22;17139;52.140;11.636;2023-04-04T00:32:25;0.20;50.00
9425;DHT22;17139;52.140;11.636;2023-04-04T00:34:52;0.80;50.00
9425;DHT22;17139;52.140;11.636;2023-04-04T00:37:22;0.70;49.30
9425;DHT22;17139;52.140;11.636;2023-04-04T00:39:49;0.60;49.40
9425;DHT22;17139;52.140;11.636;2023-04-04T00:42:16;0.50;49.60
9425;DHT22;17139;52.140;11.636;2023-04-04T00:44:44;0.50;49.80
9425;DHT22;17139;52.140;11.636;2023-04-04T00:47:13;0.50;50.00
9425;DHT22;17139;52.140;11.636;2023-04-04T00:49:41;0.40;50.00
9425;DHT22;17139;52.140;11.636;2023-04-04T00:52:08;0.40;50.00
9425;DHT22;17139;52.140;11.636;2023-04-04T00:54:35;0.40;50.10
9425;DHT22;17139;52.140;11.636;2023-04-04T00:57:05;0.40;50.10
9425;DHT22;17139;52.140;11.636;2023-04-04T00:59:33;0.40;50.10
9425;DHT22;17139;52.140;11.636;2023-04-04T01:02:01;0.40;50.20
9425;DHT22;17139;52.140;11.636;2023-04-04T01:04:30;0.40;50.20
9425;DHT22;17139;52.140;11.636;2023-04-04T01:06:58;0.40;50.20
9425;DHT22;17139;52.140;11.636;2023-04-04T01:09:27;0.40;50.20
9425;DHT22;17139;52.140;11.636;2023-04-04T01:11:54;0.30;50.20
9425;DHT22;17139;52.140;11.636;2023-04-04T01:14:22;0.30;50.20
9425;DHT22;17139;52.140;11.636;2023-04-04T01:16:50;0.30;50.30
9425;DHT22;17139;52.140;11.636;2023-04-04T01:19:23;0.30;50.30
9425;DHT22;17139;52.140;11.636;2023-04-04T01:21:54;0.30;50.30
9425;DHT22;17139;52.140;11.636;2023-04-04T01:24:23;0.30;50.30
9425;DHT22;17139;52.140;11.636;2023-04-04T01:26:53;0.30;50.30
9425;DHT22;17139;52.140;11.636;2023-04-04T01:29:21;0.30;50.30
9425;DHT22;17139;52.140;11.636;2023-04-04T01:31:56;0.50;50.40
9425;DHT22;17139;52.140;11.636;2023-04-04T01:34:30;0.80;50.20
9425;DHT22;17139;52.140;11.636;2023-04-04T01:37:02;0.70;49.60
9425;DHT22;17139;52.140;11.636;2023-04-04T01:39:39;0.60;49.90
9425;DHT22;17139;52.140;11.636;2023-04-04T01:42:09;0.50;50.00
9425;DHT22;17139;52.140;11.636;2023-04-04T01:44:37;0.40;50.10
9425;DHT22;17139;52.140;11.636;2023-04-04T01:47:05;0.40;50.20
9425;DHT22;17139;52.140;11.636;2023-04-04T01:49:33;0.40;50.20
9425;DHT22;17139;52.140;11.636;2023-04-04T01:52:00;0.40;50.30
9425;DHT22;17139;52.140;11.636;2023-04-04T01:54:28;0.40;50.20
9425;DHT22;17139;52.140;11.636;2023-04-04T01:56:57;0.40;50.20
9425;DHT22;17139;52.140;11.636;2023-04-04T01:59:25;0.40;50.20
9425;DHT22;17139;52.140;11.636;2023-04-04T02:01:52;0.40;50.20
9425;DHT22;17139;52.140;11.636;2023-04-04T02:04:20;0.40;50.20
9425;DHT22;17139;52.140;11.636;2023-04-04T02:06:47;0.40;50.20
9425;DHT22;17139;52.140;11.636;2023-04-04T02:09:14;0.40;50.30
9425;DHT22;17139;52.140;11.636;2023-04-04T02:11:42;0.60;51.10
9425;DHT22;17139;52.140;11.636;2023-04-04T02:14:09;0.90;50.20
9425;DHT22;17139;52.140;11.636;2023-04-04T02:16:38;0.80;49.60
9425;DHT22;17139;52.140;11.636;2023-04-04T02:19:05;0.60;49.70
9425;DHT22;17139;52.140;11.636;2023-04-04T02:21:32;0.50;50.00
9425;DHT22;17139;52.140;11.636;2023-04-04T02:24:02;0.40;50.20
9425;DHT22;17139;52.140;11.636;2023-04-04T02:26:30;0.30;50.30
9425;DHT22;17139;52.140;11.636;2023-04-04T02:28:57;0.20;50.40
9425;DHT22;17139;52.140;11.636;2023-04-04T02:31:25;0.20;50.40
9425;DHT22;17139;52.140;11.636;2023-04-04T02:33:54;0.20;50.40
9425;DHT22;17139;52.140;11.636;2023-04-04T02:36:22;0.10;50.30
9425;DHT22;17139;52.140;11.636;2023-04-04T02:38:49;0.10;50.30
9425;DHT22;17139;52.140;11.636;2023-04-04T02:41:17;0.00;50.30
9425;DHT22;17139;52.140;11.636;2023-04-04T02:43:44;0.00;50.40
9425;DHT22;17139;52.140;11.636;2023-04-04T02:46:11;0.00;50.40
9425;DHT22;17139;52.140;11.636;2023-04-04T02:48:38;-0.10;50.40
9425;DHT22;17139;52.140;11.636;2023-04-04T02:51:07;0.10;50.60
9425;DHT22;17139;52.140;11.636;2023-04-04T02:53:34;0.10;50.10
9425;DHT22;17139;52.140;11.636;2023-04-04T02:56:02;0.00;50.20
9425;DHT22;17139;52.140;11.636;2023-04-04T02:58:30;-0.10;50.30
9425;DHT22;17139;52.140;11.636;2023-04-04T03:00:58;-0.20;50.50
9425;DHT22;17139;52.140;11.636;2023-04-04T03:03:25;0.50;50.60
9425;DHT22;17139;52.140;11.636;2023-04-04T03:05:53;0.30;49.70
9425;DHT22;17139;52.140;11.636;2023-04-04T03:08:22;0.10;49.90
9425;DHT22;17139;52.140;11.636;2023-04-04T03:10:49;0.00;50.20
9425;DHT22;17139;52.140;11.636;2023-04-04T03:13:16;-0.10;50.40
9425;DHT22;17139;52.140;11.636;2023-04-04T03:15:43;-0.30;50.50
9425;DHT22;17139;52.140;11.636;2023-04-04T03:18:10;-0.30;50.70
9425;DHT22;17139;52.140;11.636;2023-04-04T03:20:38;-0.40;50.70
9425;DHT22;17139;52.140;11.636;2023-04-04T03:23:05;-0.50;50.70
9425;DHT22;17139;52.140;11.636;2023-04-04T03:25:34;-0.60;50.80
9425;DHT22;17139;52.140;11.636;2023-04-04T03:28:07;-0.60;50.90
9425;DHT22;17139;52.140;11.636;2023-04-04T03:30:36;-0.70;50.80
9425;DHT22;17139;52.140;11.636;2023-04-04T03:33:04;-0.70;50.80
9425;DHT22;17139;52.140;11.636;2023-04-04T03:35:36;-0.80;50.80
9425;DHT22;17139;52.140;11.636;2023-04-04T03:38:03;-0.80;50.90
9425;DHT22;17139;52.140;11.636;2023-04-04T03:40:30;-0.90;51.50
9425;DHT22;17139;52.140;11.636;2023-04-04T03:42:59;-0.90;50.90
9425;DHT22;17139;52.140;11.636;2023-04-04T03:45:27;-1.00;50.90
9425;DHT22;17139;52.140;11.636;2023-04-04T03:47:54;-1.00;51.10
9425;DHT22;17139;52.140;11.636;2023-04-04T03:50:21;-0.20;51.10
9425;DHT22;17139;52.140;11.636;2023-04-04T03:52:49;-0.40;50.00
9425;DHT22;17139;52.140;11.636;2023-04-04T03:55:16;-0.60;50.20
9425;DHT22;17139;52.140;11.636;2023-04-04T03:57:44;-0.70;50.50
9425;DHT22;17139;52.140;11.636;2023-04-04T04:00:13;-0.80;50.70
9425;DHT22;17139;52.140;11.636;2023-04-04T04:02:41;-0.90;50.80
9425;DHT22;17139;52.140;11.636;2023-04-04T04:05:08;-1.00;50.90
9425;DHT22;17139;52.140;11.636;2023-04-04T04:07:36;-1.10;50.90
9425;DHT22;17139;52.140;11.636;2023-04-04T04:10:03;-1.10;51.00
9425;DHT22;17139;52.140;11.636;2023-04-04T04:12:31;-1.10;51.00
9425;DHT22;17139;52.140;11.636;2023-04-04T04:14:58;-1.20;51.00
9425;DHT22;17139;52.140;11.636;2023-04-04T04:17:27;-1.20;51.10
9425;DHT22;17139;52.140;11.636;2023-04-04T04:19:54;-1.30;51.10
9425;DHT22;17139;52.140;11.636;2023-04-04T04:22:22;-0.90;51.50
9425;DHT22;17139;52.140;11.636;2023-04-04T04:24:49;-1.00;50.60
9425;DHT22;17139;52.140;11.636;2023-04-04T04:27:16;-1.20;50.70
9425;DHT22;17139;52.140;11.636;2023-04-04T04:29:43;-1.30;51.00
9425;DHT22;17139;52.140;11.636;2023-04-04T04:32:15;-0.80;51.50
9425;DHT22;17139;52.140;11.636;2023-04-04T04:34:44;-0.90;50.60
9425;DHT22;17139;52.140;11.636;2023-04-04T04:37:11;-1.10;50.70
9425;DHT22;17139;52.140;11.636;2023-04-04T04:39:38;-1.20;51.00
9425;DHT22;17139;52.140;11.636;2023-04-04T04:42:06;-1.30;51.10
9425;DHT22;17139;52.140;11.636;2023-04-04T04:44:33;-1.40;51.20
9425;DHT22;17139;52.140;11.636;2023-04-04T04:47:00;-1.40;51.20
9425;DHT22;17139;52.140;11.636;2023-04-04T04:49:29;-1.40;51.10
9425;DHT22;17139;52.140;11.636;2023-04-04T04:51:57;-1.40;51.20
9425;DHT22;17139;52.140;11.636;2023-04-04T04:54:25;-1.40;51.00
9425;DHT22;17139;52.140;11.636;2023-04-04T04:56:52;-1.50;50.90
9425;DHT22;17139;52.140;11.636;2023-04-04T04:59:19;-1.50;50.90
9425;DHT22;17139;52.140;11.636;2023-04-04T05:01:46;-1.50;50.80
9425;DHT22;17139;52.140;11.636;2023-04-04T05:04:14;-1.50;50.90
9425;DHT22;17139;52.140;11.636;2023-04-04T05:06:42;-1.50;50.90
9425;DHT22;17139;52.140;11.636;2023-04-04T05:09:10;-1.50;50.80
9425;DHT22;17139;52.140;11.636;2023-04-04T05:11:38;-1.40;50.90
9425;DHT22;17139;52.140;11.636;2023-04-04T05:14:05;-1.30;50.70
9425;DHT22;17139;52.140;11.636;2023-04-04T05:16:33;-1.30;50.70
9425;DHT22;17139;52.140;11.636;2023-04-04T05:19:00;-1.20;50.80
9425;DHT22;17139;52.140;11.636;2023-04-04T05:21:28;-1.20;50.60
9425;DHT22;17139;52.140;11.636;2023-04-04T05:23:56;-1.20;50.50
9425;DHT22;17139;52.140;11.636;2023-04-04T05:26:24;-1.20;50.50
9425;DHT22;17139;52.140;11.636;2023-04-04T05:28:52;-1.20;50.50
9425;DHT22;17139;52.140;11.636;2023-04-04T05:31:19;-1.10;50.70
9425;DHT22;17139;52.140;11.636;2023-04-04T05:33:46;-1.00;50.70
9425;DHT22;17139;52.140;11.636;2023-04-04T05:36:14;-1.00;50.60
9425;DHT22;17139;52.140;11.636;2023-04-04T05:38:41;-0.60;51.00
9425;DHT22;17139;52.140;11.636;2023-04-04T05:41:08;-0.50;50.50
9425;DHT22;17139;52.140;11.636;2023-04-04T05:43:36;-0.50;50.50
9425;DHT22;17139;52.140;11.636;2023-04-04T05:46:04;-0.40;50.60
9425;DHT22;17139;52.140;11.636;2023-04-04T05:48:31;-0.50;50.20
9425;DHT22;17139;52.140;11.636;2023-04-04T05:50:58;-0.50;50.30
9425;DHT22;17139;52.140;11.636;2023-04-04T05:53:26;-0.50;50.40
9425;DHT22;17139;52.140;11.636;2023-04-04T05:55:53;-0.60;50.40
9425;DHT22;17139;52.140;11.636;2023-04-04T05:58:20;-0.60;50.40
9425;DHT22;17139;52.140;11.636;2023-04-04T06:00:49;-0.60;50.40
9425;DHT22;17139;52.140;11.636;2023-04-04T06:03:17;-0.60;50.40
9425;DHT22;17139;52.140;11.636;2023-04-04T06:05:49;-0.70;50.40
9425;DHT22;17139;52.140;11.636;2023-04-04T06:08:17;-0.70;50.40
9425;DHT22;17139;52.140;11.636;2023-04-04T06:10:44;-0.60;50.40
9425;DHT22;17139;52.140;11.636;2023-04-04T06:13:11;-0.70;50.40
9425;DHT22;17139;52.140;11.636;2023-04-04T06:15:39;-0.70;50.40
9425;DHT22;17139;52.140;11.636;2023-04-04T06:18:07;-0.70;50.40
9425;DHT22;17139;52.140;11.636;2023-04-04T06:20:34;-0.40;50.60
9425;DHT22;17139;52.140;11.636;2023-04-04T06:23:01;0.00;50.30
9425;DHT22;17139;52.140;11.636;2023-04-04T06:25:29;-0.10;49.50
9425;DHT22;17139;52.140;11.636;2023-04-04T06:27:56;-0.20;49.80
9425;DHT22;17139;52.140;11.636;2023-04-04T06:30:24;0.30;50.10
9425;DHT22;17139;52.140;11.636;2023-04-04T06:32:51;0.30;49.60
9425;DHT22;17139;52.140;11.636;2023-04-04T06:35:20;0.20;49.50
9425;DHT22;17139;52.140;11.636;2023-04-04T06:37:53;-0.10;49.60
9425;DHT22;17139;52.140;11.636;2023-04-04T06:40:21;-0.20;50.00
9425;DHT22;17139;52.140;11.636;2023-04-04T06:42:49;-0.30;50.10
9425;DHT22;17139;52.140;11.636;2023-04-04T06:45:16;-0.30;50.30
9425;DHT22;17139;52.140;11.636;2023-04-04T06:47:44;-0.30;50.40
9425;DHT22;17139;52.140;11.636;2023-04-04T06:50:12;-0.30;50.40
9425;DHT22;17139;52.140;11.636;2023-04-04T06:52:41;-0.10;50.40
9425;DHT22;17139;52.140;11.636;2023-04-04T06:55:10;-0.10;50.20
9425;DHT22;17139;52.140;11.636;2023-04-04T06:57:37;-0.10;50.10
9425;DHT22;17139;52.140;11.636;2023-04-04T07:00:06;-0.10;50.10
9425;DHT22;17139;52.140;11.636;2023-04-04T07:02:34;0.00;50.20
9425;DHT22;17139;52.140;11.636;2023-04-04T07:05:01;0.00;50.10
9425;DHT22;17139;52.140;11.636;2023-04-04T07:07:29;0.10;50.10
9425;DHT22;17139;52.140;11.636;2023-04-04T07:09:58;0.10;50.00
9425;DHT22;17139;52.140;11.636;2023-04-04T07:12:25;0.20;50.00
9425;DHT22;17139;52.140;11.636;2023-04-04T07:14:52;0.20;49.90
9425;DHT22;17139;52.140;11.636;2023-04-04T07:17:19;0.30;49.90
9425;DHT22;17139;52.140;11.636;2023-04-04T07:19:47;0.30;49.70
9425;DHT22;17139;52.140;11.636;2023-04-04T07:22:14;0.40;49.70
9425;DHT22;17139;52.140;11.636;2023-04-04T07:24:41;1.10;49.60
9425;DHT22;17139;52.140;11.636;2023-04-04T07:27:10;1.00;49.00
9425;DHT22;17139;52.140;11.636;2023-04-04T07:29:39;0.80;49.20
9425;DHT22;17139;52.140;11.636;2023-04-04T07:32:07;0.80;49.40
9425;DHT22;17139;52.140;11.636;2023-04-04T07:34:34;0.80;49.40
9425;DHT22;17139;52.140;11.636;2023-04-04T07:37:02;0.80;49.50
9425;DHT22;17139;52.140;11.636;2023-04-04T07:39:29;0.80;49.60
9425;DHT22;17139;52.140;11.636;2023-04-04T07:41:57;0.80;49.70
9425;DHT22;17139;52.140;11.636;2023-04-04T07:44:25;0.80;49.70
9425;DHT22;17139;52.140;11.636;2023-04-04T07:46:52;0.80;49.60
9425;DHT22;17139;52.140;11.636;2023-04-04T07:49:20;0.90;49.70
9425;DHT22;17139;52.140;11.636;2023-04-04T07:51:47;0.90;49.60
9425;DHT22;17139;52.140;11.636;2023-04-04T07:54:14;1.70;49.20
9425;DHT22;17139;52.140;11.636;2023-04-04T07:56:42;1.60;48.70
9425;DHT22;17139;52.140;11.636;2023-04-04T07:59:09;1.40;49.00
9425;DHT22;17139;52.140;11.636;2023-04-04T08:01:38;1.40;49.30
9425;DHT22;17139;52.140;11.636;2023-04-04T08:04:08;1.30;49.40
9425;DHT22;17139;52.140;11.636;2023-04-04T08:06:35;1.40;49.60
9425;DHT22;17139;52.140;11.636;2023-04-04T08:09:03;1.40;49.60
9425;DHT22;17139;52.140;11.636;2023-04-04T08:11:30;1.40;49.50
9425;DHT22;17139;52.140;11.636;2023-04-04T08:13:58;1.50;49.60
9425;DHT22;17139;52.140;11.636;2023-04-04T08:16:25;1.50;49.60
9425;DHT22;17139;52.140;11.636;2023-04-04T08:18:54;1.50;49.60
9425;DHT22;17139;52.140;11.636;2023-04-04T08:21:21;1.50;49.50
9425;DHT22;17139;52.140;11.636;2023-04-04T08:23:48;1.50;49.50
9425;DHT22;17139;52.140;11.636;2023-04-04T08:26:16;1.50;49.50
9425;DHT22;17139;52.140;11.636;2023-04-04T08:28:43;1.60;49.60
9425;DHT22;17139;52.140;11.636;2023-04-04T08:31:11;1.70;49.60
9425;DHT22;17139;52.140;11.636;2023-04-04T08:33:38;2.00;49.30
9425;DHT22;17139;52.140;11.636;2023-04-04T08:36:08;2.40;48.70
9425;DHT22;17139;52.140;11.636;2023-04-04T08:38:36;2.30;48.40
9425;DHT22;17139;52.140;11.636;2023-04-04T08:41:03;2.20;48.70
9425;DHT22;17139;52.140;11.636;2023-04-04T08:43:33;2.10;48.90
9425;DHT22;17139;52.140;11.636;2023-04-04T08:46:03;2.00;48.90
9425;DHT22;17139;52.140;11.636;2023-04-04T08:48:32;2.10;49.20
9425;DHT22;17139;52.140;11.636;2023-04-04T08:51:02;2.20;49.30
9425;DHT22;17139;52.140;11.636;2023-04-04T08:53:33;2.30;49.20
9425;DHT22;17139;52.140;11.636;2023-04-04T08:56:02;2.40;49.10
9425;DHT22;17139;52.140;11.636;2023-04-04T08:58:29;2.60;49.20
9425;DHT22;17139;52.140;11.636;2023-04-04T09:00:57;2.80;49.10
9425;DHT22;17139;52.140;11.636;2023-04-04T09:03:25;3.00;48.90
9425;DHT22;17139;52.140;11.636;2023-04-04T09:05:54;3.20;48.90
9425;DHT22;17139;52.140;11.636;2023-04-04T09:08:22;3.90;46.90
9425;DHT22;17139;52.140;11.636;2023-04-04T09:10:51;3.90;47.40
9425;DHT22;17139;52.140;11.636;2023-04-04T09:13:19;4.70;45.60
9425;DHT22;17139;52.140;11.636;2023-04-04T09:15:47;4.60;46.40
9425;DHT22;17139;52.140;11.636;2023-04-04T09:18:15;4.40;47.00
9425;DHT22;17139;52.140;11.636;2023-04-04T09:20:43;4.40;47.50
9425;DHT22;17139;52.140;11.636;2023-04-04T09:23:12;4.40;47.80
9425;DHT22;17139;52.140;11.636;2023-04-04T09:25:44;4.50;47.90
9425;DHT22;17139;52.140;11.636;2023-04-04T09:28:15;4.40;47.80
9425;DHT22;17139;52.140;11.636;2023-04-04T09:30:43;4.30;48.00
9425;DHT22;17139;52.140;11.636;2023-04-04T09:33:12;4.30;48.10
9425;DHT22;17139;52.140;11.636;2023-04-04T09:35:43;4.20;48.10
9425;DHT22;17139;52.140;11.636;2023-04-04T09:38:12;5.00;45.90
9425;DHT22;17139;52.140;11.636;2023-04-04T09:40:40;5.40;44.40
9425;DHT22;17139;52.140;11.636;2023-04-04T09:43:08;4.90;45.80
9425;DHT22;17139;52.140;11.636;2023-04-04T09:45:39;4.50;46.70
9425;DHT22;17139;52.140;11.636;2023-04-04T09:48:06;4.30;47.70
9425;DHT22;17139;52.140;11.636;2023-04-04T09:50:35;4.10;47.90
9425;DHT22;17139;52.140;11.636;2023-04-04T09:53:04;3.90;48.20
9425;DHT22;17139;52.140;11.636;2023-04-04T09:55:32;3.70;48.40
9425;DHT22;17139;52.140;11.636;2023-04-04T09:58:10;3.60;48.60
9425;DHT22;17139;52.140;11.636;2023-04-04T10:00:41;3.50;48.70
9425;DHT22;17139;52.140;11.636;2023-04-04T10:03:11;3.40;48.90
9425;DHT22;17139;52.140;11.636;2023-04-04T10:05:40;3.20;49.10
9425;DHT22;17139;52.140;11.636;2023-04-04T10:08:14;3.80;46.70
9425;DHT22;17139;52.140;11.636;2023-04-04T10:10:48;3.70;47.30
9425;DHT22;17139;52.140;11.636;2023-04-04T10:13:22;4.40;45.20
9425;DHT22;17139;52.140;11.636;2023-04-04T10:15:52;4.00;46.40
9425;DHT22;17139;52.140;11.636;2023-04-04T10:18:22;3.80;47.30
9425;DHT22;17139;52.140;11.636;2023-04-04T10:20:50;3.70;47.80
9425;DHT22;17139;52.140;11.636;2023-04-04T10:23:18;3.60;48.00
9425;DHT22;17139;52.140;11.636;2023-04-04T10:25:48;3.60;48.20
9425;DHT22;17139;52.140;11.636;2023-04-04T10:28:16;3.60;48.40
9425;DHT22;17139;52.140;11.636;2023-04-04T10:31:04;3.70;48.50
9425;DHT22;17139;52.140;11.636;2023-04-04T10:33:39;3.80;48.40
9425;DHT22;17139;52.140;11.636;2023-04-04T10:36:11;3.80;48.40
9425;DHT22;17139;52.140;11.636;2023-04-04T10:38:42;3.90;48.30
9425;DHT22;17139;52.140;11.636;2023-04-04T10:41:10;4.70;45.40
9425;DHT22;17139;52.140;11.636;2023-04-04T10:43:40;5.10;44.60
9425;DHT22;17139;52.140;11.636;2023-04-04T10:46:12;4.80;45.70
9425;DHT22;17139;52.140;11.636;2023-04-04T10:48:40;4.60;46.60
9425;DHT22;17139;52.140;11.636;2023-04-04T10:51:10;4.60;46.70
9425;DHT22;17139;52.140;11.636;2023-04-04T10:53:38;4.40;46.90
9425;DHT22;17139;52.140;11.636;2023-04-04T10:56:07;4.40;47.50
9425;DHT22;17139;52.140;11.636;2023-04-04T10:58:38;4.40;47.80
9425;DHT22;17139;52.140;11.636;2023-04-04T11:01:08;4.50;47.90
9425;DHT22;17139;52.140;11.636;2023-04-04T11:07:15;4.50;47.80
9425;DHT22;17139;52.140;11.636;2023-04-04T11:10:00;4.50;47.30
9425;DHT22;17139;52.140;11.636;2023-04-04T11:12:29;4.30;47.70
9425;DHT22;17139;52.140;11.636;2023-04-04T11:15:06;4.20;47.80
9425;DHT22;17139;52.140;11.636;2023-04-04T11:20:30;4.80;46.80
9425;DHT22;17139;52.140;11.636;2023-04-04T11:23:07;4.80;47.30
9425;DHT22;17139;52.140;11.636;2023-04-04T11:25:39;4.90;47.50
9425;DHT22;17139;52.140;11.636;2023-04-04T11:28:14;5.00;47.60
9425;DHT22;17139;52.140;11.636;2023-04-04T11:31:23;5.10;47.60
9425;DHT22;17139;52.140;11.636;2023-04-04T11:33:59;5.00;47.40
9425;DHT22;17139;52.140;11.636;2023-04-04T11:36:48;5.00;47.70
9425;DHT22;17139;52.140;11.636;2023-04-04T11:39:24;5.10;47.70
9425;DHT22;17139;52.140;11.636;2023-04-04T11:41:55;5.00;47.70
9425;DHT22;17139;52.140;11.636;2023-04-04T11:44:25;5.10;47.80
9425;DHT22;17139;52.140;11.636;2023-04-04T11:46:55;5.00;47.70
9425;DHT22;17139;52.140;11.636;2023-04-04T11:49:28;5.30;46.70
9425;DHT22;17139;52.140;11.636;2023-04-04T11:51:57;5.60;45.00
9425;DHT22;17139;52.140;11.636;2023-04-04T11:54:25;5.20;46.00
9425;DHT22;17139;52.140;11.636;2023-04-04T11:56:52;5.00;46.60
9425;DHT22;17139;52.140;11.636;2023-04-04T11:59:20;4.70;47.20
9425;DHT22;17139;52.140;11.636;2023-04-04T12:01:48;4.70;47.60
9425;DHT22;17139;52.140;11.636;2023-04-04T12:04:17;4.80;47.80
9425;DHT22;17139;52.140;11.636;2023-04-04T12:06:49;4.80;47.60
9425;DHT22;17139;52.140;11.636;2023-04-04T12:09:17;4.80;47.50
9425;DHT22;17139;52.140;11.636;2023-04-04T12:11:45;4.80;47.70
9425;DHT22;17139;52.140;11.636;2023-04-04T12:14:17;4.90;47.80
9425;DHT22;17139;52.140;11.636;2023-04-04T12:16:46;5.10;47.60
9425;DHT22;17139;52.140;11.636;2023-04-04T12:19:14;5.10;47.60
9425;DHT22;17139;52.140;11.636;2023-04-04T12:21:41;5.20;47.00
9425;DHT22;17139;52.140;11.636;2023-04-04T12:24:10;5.30;47.10
9425;DHT22;17139;52.140;11.636;2023-04-04T12:26:39;5.30;47.40
9425;DHT22;17139;52.140;11.636;2023-04-04T12:29:08;5.30;47.50
9425;DHT22;17139;52.140;11.636;2023-04-04T12:31:36;5.30;47.50
9425;DHT22;17139;52.140;11.636;2023-04-04T12:34:04;5.30;47.40
9425;DHT22;17139;52.140;11.636;2023-04-04T12:36:32;5.40;47.50
9425;DHT22;17139;52.140;11.636;2023-04-04T12:39:05;5.40;47.50
9425;DHT22;17139;52.140;11.636;2023-04-04T12:41:35;5.50;47.40
9425;DHT22;17139;52.140;11.636;2023-04-04T12:44:04;5.60;47.50
9425;DHT22;17139;52.140;11.636;2023-04-04T12:46:35;5.70;47.40
9425;DHT22;17139;52.140;11.636;2023-04-04T12:49:05;5.70;48.00
9425;DHT22;17139;52.140;11.636;2023-04-04T12:51:35;5.80;47.40
9425;DHT22;17139;52.140;11.636;2023-04-04T12:54:04;5.80;48.00
9425;DHT22;17139;52.140;11.636;2023-04-04T12:56:34;5.70;47.10
9425;DHT22;17139;52.140;11.636;2023-04-04T12:59:03;6.20;44.70
9425;DHT22;17139;52.140;11.636;2023-04-04T13:01:31;6.70;41.80
9425;DHT22;17139;52.140;11.636;2023-04-04T13:04:01;6.40;43.50
9425;DHT22;17139;52.140;11.636;2023-04-04T13:06:30;6.00;44.90
9425;DHT22;17139;52.140;11.636;2023-04-04T13:08:58;6.20;44.20
9425;DHT22;17139;52.140;11.636;2023-04-04T13:11:26;6.70;41.10
9425;DHT22;17139;52.140;11.636;2023-04-04T13:14:15;6.40;43.10
9425;DHT22;17139;52.140;11.636;2023-04-04T13:16:42;6.80;41.40
9425;DHT22;17139;52.140;11.636;2023-04-04T13:19:09;6.50;43.20
9425;DHT22;17139;52.140;11.636;2023-04-04T13:21:38;6.30;44.90
9425;DHT22;17139;52.140;11.636;2023-04-04T13:24:06;6.10;45.50
9425;DHT22;17139;52.140;11.636;2023-04-04T13:26:33;6.00;46.10
9425;DHT22;17139;52.140;11.636;2023-04-04T13:29:00;6.50;42.60
9425;DHT22;17139;52.140;11.636;2023-04-04T13:31:29;6.40;43.80
9425;DHT22;17139;52.140;11.636;2023-04-04T13:33:57;6.20;45.30
9425;DHT22;17139;52.140;11.636;2023-04-04T13:36:24;6.10;45.80
9425;DHT22;17139;52.140;11.636;2023-04-04T13:38:53;6.00;46.10
9425;DHT22;17139;52.140;11.636;2023-04-04T13:41:20;6.00;46.30
9425;DHT22;17139;52.140;11.636;2023-04-04T13:43:48;6.00;47.10
9425;DHT22;17139;52.140;11.636;2023-04-04T13:46:16;5.90;46.60
9425;DHT22;17139;52.140;11.636;2023-04-04T13:48:45;6.00;46.80
9425;DHT22;17139;52.140;11.636;2023-04-04T13:51:12;6.00;46.80
9425;DHT22;17139;52.140;11.636;2023-04-04T13:53:40;6.00;46.90
9425;DHT22;17139;52.140;11.636;2023-04-04T13:56:09;6.10;46.80
9425;DHT22;17139;52.140;11.636;2023-04-04T13:58:37;6.10;46.60
9425;DHT22;17139;52.140;11.636;2023-04-04T14:01:05;6.10;46.60
9425;DHT22;17139;52.140;11.636;2023-04-04T14:03:33;6.10;46.80
9425;DHT22;17139;52.140;11.636;2023-04-04T14:06:02;6.00;46.70
9425;DHT22;17139;52.140;11.636;2023-04-04T14:08:29;5.90;46.70
9425;DHT22;17139;52.140;11.636;2023-04-04T14:10:56;6.00;46.10
9425;DHT22;17139;52.140;11.636;2023-04-04T14:13:24;5.90;46.50
9425;DHT22;17139;52.140;11.636;2023-04-04T14:15:52;5.80;46.70
9425;DHT22;17139;52.140;11.636;2023-04-04T14:18:19;5.80;47.00
9425;DHT22;17139;52.140;11.636;2023-04-04T14:20:47;5.80;47.10
9425;DHT22;17139;52.140;11.636;2023-04-04T14:23:15;5.90;47.50
9425;DHT22;17139;52.140;11.636;2023-04-04T14:25:42;5.90;47.20
9425;DHT22;17139;52.140;11.636;2023-04-04T14:28:10;6.00;47.20
9425;DHT22;17139;52.140;11.636;2023-04-04T14:30:37;6.00;47.20
9425;DHT22;17139;52.140;11.636;2023-04-04T14:33:04;6.00;47.20
9425;DHT22;17139;52.140;11.636;2023-04-04T14:35:32;6.10;47.30
9425;DHT22;17139;52.140;11.636;2023-04-04T14:37:59;6.10;47.20
9425;DHT22;17139;52.140;11.636;2023-04-04T14:40:28;6.90;43.20
9425;DHT22;17139;52.140;11.636;2023-04-04T14:42:56;6.80;44.30
9425;DHT22;17139;52.140;11.636;2023-04-04T14:45:24;6.60;44.80
9425;DHT22;17139;52.140;11.636;2023-04-04T14:47:53;7.20;42.10
9425;DHT22;17139;52.140;11.636;2023-04-04T14:50:20;6.90;43.60
9425;DHT22;17139;52.140;11.636;2023-04-04T14:52:47;7.20;42.00
9425;DHT22;17139;52.140;11.636;2023-04-04T14:55:18;6.90;43.60
9425;DHT22;17139;52.140;11.636;2023-04-04T14:57:48;6.60;44.30
9425;DHT22;17139;52.140;11.636;2023-04-04T15:00:16;6.40;44.90
9425;DHT22;17139;52.140;11.636;2023-04-04T15:02:45;6.30;46.40
9425;DHT22;17139;52.140;11.636;2023-04-04T15:05:14;6.20;46.60
9425;DHT22;17139;52.140;11.636;2023-04-04T15:07:42;6.10;46.50
9425;DHT22;17139;52.140;11.636;2023-04-04T15:10:10;6.00;46.80
9425;DHT22;17139;52.140;11.636;2023-04-04T15:12:37;6.00;46.60
9425;DHT22;17139;52.140;11.636;2023-04-04T15:15:07;6.20;45.80
9425;DHT22;17139;52.140;11.636;2023-04-04T15:17:35;6.20;46.10
9425;DHT22;17139;52.140;11.636;2023-04-04T15:20:02;6.10;46.60
9425;DHT22;17139;52.140;11.636;2023-04-04T15:22:30;6.40;44.00
9425;DHT22;17139;52.140;11.636;2023-04-04T15:24:57;6.40;44.60
9425;DHT22;17139;52.140;11.636;2023-04-04T15:27:24;6.20;46.00
9425;DHT22;17139;52.140;11.636;2023-04-04T15:29:52;6.20;46.30
9425;DHT22;17139;52.140;11.636;2023-04-04T15:32:20;6.50;43.70
9425;DHT22;17139;52.140;11.636;2023-04-04T15:34:48;6.60;44.60
9425;DHT22;17139;52.140;11.636;2023-04-04T15:37:15;7.20;41.80
9425;DHT22;17139;52.140;11.636;2023-04-04T15:39:42;7.00;43.40
9425;DHT22;17139;52.140;11.636;2023-04-04T15:42:11;6.80;44.40
9425;DHT22;17139;52.140;11.636;2023-04-04T15:44:38;6.60;44.80
9425;DHT22;17139;52.140;11.636;2023-04-04T15:47:05;6.50;45.30
9425;DHT22;17139;52.140;11.636;2023-04-04T15:49:34;6.40;45.40
9425;DHT22;17139;52.140;11.636;2023-04-04T15:52:02;6.40;45.60
9425;DHT22;17139;52.140;11.636;2023-04-04T15:54:30;6.40;45.90
9425;DHT22;17139;52.140;11.636;2023-04-04T15:56:57;6.20;46.50